createdAt,value
2024-04-24T00:02:24.646Z,77.76
2024-04-24T00:04:51.370Z,77.39
2024-04-24T00:07:18.127Z,77.48
2024-04-24T00:09:44.628Z,77.29
2024-04-24T00:12:11.133Z,77.28
2024-04-24T00:14:37.632Z,76.86
2024-04-24T00:17:05.176Z,76.39
2024-04-24T00:19:31.787Z,76.33
2024-04-24T00:21:58.318Z,76.31
2024-04-24T00:24:24.820Z,75.97
2024-04-24T00:26:51.375Z,75.19
2024-04-24T00:29:18.003Z,74.27
2024-04-24T00:31:44.697Z,73.81
2024-04-24T00:34:11.243Z,74.19
2024-04-24T00:36:37.749Z,73.79
2024-04-24T00:39:04.272Z,74.30
2024-04-24T00:41:30.811Z,74.29
2024-04-24T00:43:57.332Z,74.48
2024-04-24T00:46:25.291Z,75.27
2024-04-24T00:48:53.121Z,75.35
2024-04-24T00:51:21.158Z,75.28
2024-04-24T00:53:48.190Z,75.82
2024-04-24T00:56:14.918Z,75.53
2024-04-24T00:58:41.727Z,75.79
2024-04-24T01:01:08.618Z,76.08
2024-04-24T01:03:35.186Z,75.98
2024-04-24T01:06:01.676Z,76.37
2024-04-24T01:08:28.275Z,76.45
2024-04-24T01:10:58.931Z,76.31
2024-04-24T01:13:26.293Z,75.81
2024-04-24T01:16:09.941Z,76.25
2024-04-24T01:18:39.724Z,76.47
2024-04-24T01:21:07.966Z,76.31
2024-04-24T01:23:40.854Z,75.87
2024-04-24T01:26:13.327Z,75.90
2024-04-24T01:28:39.935Z,76.00
2024-04-24T01:31:06.449Z,76.17
2024-04-24T01:33:33.017Z,76.08
2024-04-24T01:35:59.681Z,76.25
2024-04-24T01:38:26.351Z,76.37
2024-04-24T01:40:53.115Z,76.30
2024-04-24T01:43:19.657Z,76.42
2024-04-24T01:45:46.254Z,76.87
2024-04-24T01:48:12.945Z,76.78
2024-04-24T01:50:40.079Z,77.28
2024-04-24T01:53:06.981Z,77.25
2024-04-24T01:55:33.580Z,77.69
2024-04-24T01:58:00.124Z,78.26
2024-04-24T02:00:26.640Z,77.87
2024-04-24T02:02:53.260Z,77.96
2024-04-24T02:05:19.960Z,78.28
2024-04-24T02:07:46.598Z,78.38
2024-04-24T02:10:13.130Z,78.68
2024-04-24T02:12:39.770Z,79.25
2024-04-24T02:15:06.897Z,78.67
2024-04-24T02:17:33.508Z,79.09
2024-04-24T02:20:00.186Z,79.61
2024-04-24T02:22:26.878Z,79.05
2024-04-24T02:25:12.300Z,79.59
2024-04-24T02:27:38.843Z,79.49
2024-04-24T02:30:06.095Z,79.44
2024-04-24T02:32:32.770Z,79.14
2024-04-24T02:34:59.460Z,79.03
2024-04-24T02:37:26.032Z,78.84
2024-04-24T02:39:52.697Z,78.26
2024-04-24T02:42:19.208Z,78.40
2024-04-24T02:44:45.734Z,78.31
2024-04-24T02:47:12.393Z,78.25
2024-04-24T02:49:38.915Z,77.98
2024-04-24T02:52:05.511Z,78.18
2024-04-24T02:54:32.024Z,78.15
2024-04-24T02:56:58.556Z,77.74
2024-04-24T02:59:25.217Z,77.94
2024-04-24T03:01:51.808Z,77.67
2024-04-24T03:04:18.415Z,77.88
2024-04-24T03:06:45.306Z,77.86
2024-04-24T03:09:12.455Z,78.05
2024-04-24T03:11:39.971Z,78.17
2024-04-24T03:14:06.550Z,78.05
2024-04-24T03:16:33.806Z,78.22
2024-04-24T03:19:00.548Z,78.31
2024-04-24T03:21:27.128Z,78.09
2024-04-24T03:23:53.673Z,78.73
2024-04-24T03:26:20.237Z,78.74
2024-04-24T03:28:46.759Z,78.23
2024-04-24T03:31:13.471Z,78.63
2024-04-24T03:33:40.018Z,78.68
2024-04-24T03:36:06.926Z,78.95
2024-04-24T03:38:33.446Z,79.10
2024-04-24T03:40:59.984Z,79.30
2024-04-24T03:43:26.523Z,79.48
2024-04-24T03:45:53.080Z,79.38
2024-04-24T03:48:19.679Z,79.10
2024-04-24T03:50:46.299Z,78.87
2024-04-24T03:53:12.839Z,79.30
2024-04-24T03:55:39.505Z,79.47
2024-04-24T03:58:06.089Z,79.79
2024-04-24T04:00:32.585Z,79.29
2024-04-24T04:02:59.215Z,80.08
2024-04-24T04:05:25.935Z,79.70
2024-04-24T04:07:59.660Z,80.07
2024-04-24T04:10:26.227Z,79.82
2024-04-24T04:12:52.779Z,80.31
2024-04-24T04:15:19.490Z,80.20
2024-04-24T04:17:46.923Z,80.40
2024-04-24T04:20:13.765Z,80.58
2024-04-24T04:22:42.600Z,80.68
2024-04-24T04:25:09.750Z,80.77
2024-04-24T04:27:36.601Z,80.58
2024-04-24T04:30:03.455Z,80.99
2024-04-24T04:32:30.062Z,81.15
2024-04-24T04:34:56.673Z,80.54
2024-04-24T04:37:23.290Z,80.86
2024-04-24T04:39:49.814Z,80.38
2024-04-24T04:42:16.424Z,80.72
2024-04-24T04:44:42.949Z,80.72
2024-04-24T04:47:09.551Z,80.50
2024-04-24T04:49:36.104Z,80.04
2024-04-24T04:52:02.681Z,80.33
2024-04-24T04:54:29.230Z,80.18
2024-04-24T04:56:55.786Z,79.91
2024-04-24T04:59:22.489Z,79.56
2024-04-24T05:01:49.045Z,79.43
2024-04-24T05:04:15.862Z,79.21
2024-04-24T05:06:42.489Z,78.72
2024-04-24T05:09:08.997Z,78.97
2024-04-24T05:11:35.687Z,78.84
2024-04-24T05:14:02.274Z,78.66
2024-04-24T05:16:28.841Z,78.72
2024-04-24T05:18:55.470Z,78.48
2024-04-24T05:21:22.159Z,78.02
2024-04-24T05:23:49.085Z,77.60
2024-04-24T05:26:34.220Z,77.36
2024-04-24T05:29:08.811Z,77.44
2024-04-24T05:31:38.103Z,76.53
2024-04-24T05:34:05.181Z,77.12
2024-04-24T05:36:31.804Z,77.18
2024-04-24T05:38:58.311Z,77.16
2024-04-24T05:41:24.962Z,77.59
2024-04-24T05:43:51.861Z,77.38
2024-04-24T05:46:18.656Z,77.31
2024-04-24T05:48:45.441Z,77.77
2024-04-24T05:51:12.036Z,77.96
2024-04-24T05:53:38.532Z,77.35
2024-04-24T05:56:05.465Z,77.96
2024-04-24T05:58:31.984Z,78.53
2024-04-24T06:00:58.586Z,78.65
2024-04-24T06:03:25.143Z,78.26
2024-04-24T06:05:51.736Z,78.52
2024-04-24T06:08:18.274Z,78.42
2024-04-24T06:10:44.890Z,78.50
2024-04-24T06:13:11.442Z,78.94
2024-04-24T06:15:37.964Z,78.89
2024-04-24T06:18:04.859Z,79.14
2024-04-24T06:20:31.451Z,78.72
2024-04-24T06:22:58.115Z,78.78
2024-04-24T06:25:24.620Z,78.84
2024-04-24T06:27:51.206Z,78.58
2024-04-24T06:30:17.855Z,78.46
2024-04-24T06:32:44.497Z,78.71
2024-04-24T06:35:11.219Z,78.31
2024-04-24T06:37:37.835Z,78.15
2024-04-24T06:40:04.787Z,77.73
2024-04-24T06:42:31.284Z,78.16
2024-04-24T06:44:58.000Z,77.99
2024-04-24T06:47:24.608Z,77.81
2024-04-24T06:49:51.194Z,77.27
2024-04-24T06:52:17.732Z,77.37
2024-04-24T06:54:44.248Z,76.78
2024-04-24T06:57:13.286Z,77.08
2024-04-24T06:59:39.832Z,76.31
2024-04-24T07:02:06.483Z,75.65
2024-04-24T07:04:33.135Z,75.74
2024-04-24T07:07:00.003Z,75.48
2024-04-24T07:09:26.569Z,75.10
2024-04-24T07:11:53.237Z,75.14
2024-04-24T07:14:19.979Z,75.10
2024-04-24T07:16:46.521Z,74.51
2024-04-24T07:19:14.912Z,74.95
2024-04-24T07:21:41.720Z,74.55
2024-04-24T07:24:08.317Z,74.08
2024-04-24T07:26:34.830Z,74.34
2024-04-24T07:29:01.477Z,74.01
2024-04-24T07:31:29.212Z,73.59
2024-04-24T07:33:55.945Z,73.50
2024-04-24T07:36:22.502Z,73.75
2024-04-24T07:38:49.731Z,74.15
2024-04-24T07:41:16.788Z,74.61
2024-04-24T07:43:43.361Z,74.57
2024-04-24T07:46:10.495Z,75.51
2024-04-24T07:48:37.208Z,75.33
2024-04-24T07:51:04.126Z,75.67
2024-04-24T07:53:32.263Z,75.36
2024-04-24T07:56:00.062Z,75.25
2024-04-24T07:58:26.678Z,75.07
2024-04-24T08:00:53.763Z,75.08
2024-04-24T08:03:20.486Z,75.15
2024-04-24T08:05:47.110Z,74.86
2024-04-24T08:08:13.639Z,74.51
2024-04-24T08:10:40.199Z,74.45
2024-04-24T08:13:06.692Z,73.90
2024-04-24T08:15:33.232Z,74.33
2024-04-24T08:17:59.857Z,73.88
2024-04-24T08:20:26.481Z,74.05
2024-04-24T08:22:53.094Z,73.55
2024-04-24T08:25:19.671Z,73.33
2024-04-24T08:27:46.313Z,73.53
2024-04-24T08:30:12.984Z,73.42
2024-04-24T08:32:39.735Z,73.46
2024-04-24T08:35:06.637Z,73.13
2024-04-24T08:37:33.231Z,72.32
2024-04-24T08:39:59.743Z,72.15
2024-04-24T08:42:26.606Z,72.04
2024-04-24T08:44:56.039Z,71.43
2024-04-24T08:47:23.072Z,71.39
2024-04-24T08:49:50.521Z,71.22
2024-04-24T08:52:19.249Z,71.35
2024-04-24T08:54:47.233Z,70.86
2024-04-24T08:57:15.249Z,70.37
2024-04-24T08:59:43.856Z,69.71
2024-04-24T09:02:11.900Z,68.99
2024-04-24T09:04:41.564Z,69.19
2024-04-24T09:07:08.970Z,68.54
2024-04-24T09:09:35.565Z,68.38
2024-04-24T09:12:04.956Z,68.37
2024-04-24T09:14:32.416Z,67.90
2024-04-24T09:16:59.742Z,67.29
2024-04-24T09:19:26.256Z,66.48
2024-04-24T09:21:52.838Z,66.03
2024-04-24T09:24:20.025Z,65.50
2024-04-24T09:26:50.269Z,64.58
2024-04-24T09:29:17.444Z,64.54
2024-04-24T09:31:44.349Z,62.99
2024-04-24T09:34:11.815Z,62.45
2024-04-24T09:36:38.926Z,62.00
2024-04-24T09:39:09.359Z,62.51
2024-04-24T09:41:36.802Z,61.75
2024-04-24T09:44:04.055Z,60.96
2024-04-24T09:46:30.960Z,60.97
2024-04-24T09:48:58.176Z,61.25
2024-04-24T09:51:24.910Z,61.73
2024-04-24T09:53:51.567Z,61.69
2024-04-24T09:56:29.181Z,61.45
2024-04-24T09:58:56.557Z,62.41
2024-04-24T10:01:23.579Z,61.61
2024-04-24T10:03:55.583Z,61.31
2024-04-24T10:06:23.572Z,59.99
2024-04-24T10:08:51.509Z,61.66
2024-04-24T10:11:21.622Z,64.85
2024-04-24T10:13:50.349Z,67.36
2024-04-24T10:16:17.438Z,68.56
2024-04-24T10:18:46.034Z,69.99
2024-04-24T10:21:13.738Z,70.57
2024-04-24T10:23:42.363Z,71.70
2024-04-24T10:26:09.915Z,72.38
2024-04-24T10:28:38.411Z,71.52
2024-04-24T10:31:05.247Z,71.52
2024-04-24T10:33:32.973Z,71.67
2024-04-24T10:36:01.202Z,72.54
2024-04-24T10:38:32.497Z,73.60
2024-04-24T10:40:59.085Z,73.96
2024-04-24T10:43:28.055Z,73.04
2024-04-24T10:45:56.427Z,73.62
2024-04-24T10:48:23.048Z,73.64
2024-04-24T10:50:52.313Z,74.34
2024-04-24T10:53:20.202Z,73.56
2024-04-24T10:55:54.923Z,73.13
2024-04-24T10:58:23.223Z,72.67
2024-04-24T11:00:50.142Z,71.30
2024-04-24T11:03:18.462Z,71.33
2024-04-24T11:05:45.192Z,71.84
2024-04-24T11:08:20.178Z,71.51
2024-04-24T11:10:53.468Z,71.32
2024-04-24T11:13:20.202Z,70.06
2024-04-24T11:15:54.551Z,69.73
2024-04-24T11:18:28.033Z,68.26
2024-04-24T11:20:54.690Z,68.66
2024-04-24T11:23:22.283Z,67.52
2024-04-24T11:25:59.246Z,66.77
2024-04-24T11:28:28.037Z,67.27
2024-04-24T11:30:54.912Z,67.48
2024-04-24T11:33:23.510Z,66.55
2024-04-24T11:35:51.505Z,66.23
2024-04-24T11:38:18.199Z,64.38
2024-04-24T11:40:44.854Z,65.77
2024-04-24T11:43:11.646Z,65.13
2024-04-24T11:45:38.327Z,65.64
2024-04-24T11:48:07.406Z,66.55
2024-04-24T11:50:34.423Z,66.58
2024-04-24T11:53:01.403Z,67.57
2024-04-24T11:55:28.078Z,67.42
2024-04-24T11:57:54.584Z,68.29
2024-04-24T12:00:21.226Z,67.59
2024-04-24T12:02:48.062Z,68.32
2024-04-24T12:05:14.814Z,67.05
2024-04-24T12:07:44.876Z,66.62
2024-04-24T12:10:12.329Z,66.51
2024-04-24T12:12:39.117Z,66.06
2024-04-24T12:15:06.012Z,65.20
2024-04-24T12:17:32.600Z,63.72
2024-04-24T12:19:59.342Z,62.88
2024-04-24T12:22:25.919Z,62.40
2024-04-24T12:24:52.435Z,62.34
2024-04-24T12:27:22.237Z,61.84
2024-04-24T12:29:49.100Z,61.66
2024-04-24T12:32:16.992Z,62.65
2024-04-24T12:34:43.781Z,61.20
2024-04-24T12:37:10.415Z,60.06
2024-04-24T12:39:36.977Z,58.94
2024-04-24T12:42:03.519Z,59.46
2024-04-24T12:44:30.167Z,58.58
2024-04-24T12:46:56.757Z,58.67
2024-04-24T12:49:23.364Z,58.69
2024-04-24T12:51:49.934Z,56.90
2024-04-24T12:54:16.615Z,57.47
2024-04-24T12:56:43.113Z,57.98
2024-04-24T12:59:09.717Z,57.56
2024-04-24T13:01:36.297Z,58.31
2024-04-24T13:04:02.965Z,58.30
2024-04-24T13:06:30.286Z,58.06
2024-04-24T13:08:59.164Z,58.21
2024-04-24T13:11:26.375Z,58.07
2024-04-24T13:13:52.956Z,57.25
2024-04-24T13:16:19.567Z,56.96
2024-04-24T13:18:46.231Z,57.15
2024-04-24T13:21:12.927Z,57.99
2024-04-24T13:23:39.481Z,59.15
2024-04-24T13:26:05.994Z,59.78
2024-04-24T13:28:35.318Z,60.40
2024-04-24T13:31:05.636Z,61.98
2024-04-24T13:33:33.971Z,63.61
2024-04-24T13:36:00.685Z,64.66
2024-04-24T13:38:27.231Z,65.52
2024-04-24T13:40:53.812Z,65.36
2024-04-24T13:43:20.329Z,65.26
2024-04-24T13:45:46.854Z,65.49
2024-04-24T13:48:13.488Z,65.27
2024-04-24T13:50:40.120Z,64.92
2024-04-24T13:53:07.982Z,64.34
2024-04-24T13:55:34.736Z,63.69
2024-04-24T13:58:01.479Z,62.68
2024-04-24T14:00:30.387Z,63.57
2024-04-24T14:02:57.398Z,61.44
2024-04-24T14:05:24.238Z,61.03
2024-04-24T14:07:51.481Z,61.25
2024-04-24T14:10:18.030Z,61.04
2024-04-24T14:12:44.625Z,61.39
2024-04-24T14:15:11.350Z,63.06
2024-04-24T14:17:39.041Z,63.64
2024-04-24T14:20:06.294Z,65.68
2024-04-24T14:22:32.887Z,65.74
2024-04-24T14:24:59.487Z,67.14
2024-04-24T14:27:26.488Z,67.31
2024-04-24T14:29:53.035Z,68.56
2024-04-24T14:32:19.884Z,68.76
2024-04-24T14:34:46.888Z,70.33
2024-04-24T14:37:13.456Z,71.04
2024-04-24T14:39:40.065Z,71.76
2024-04-24T14:42:07.040Z,72.08
2024-04-24T14:44:33.608Z,72.26
2024-04-24T14:47:00.342Z,72.12
2024-04-24T14:49:28.585Z,72.46
2024-04-24T14:51:55.185Z,72.31
2024-04-24T14:54:21.731Z,72.25
2024-04-24T14:56:48.283Z,72.94
2024-04-24T14:59:15.164Z,72.49
2024-04-24T15:01:41.879Z,72.80
2024-04-24T15:04:08.500Z,73.28
2024-04-24T15:06:36.719Z,73.18
2024-04-24T15:09:03.332Z,74.01
2024-04-24T15:11:30.055Z,73.90
2024-04-24T15:13:56.680Z,74.26
2024-04-24T15:16:23.211Z,74.46
2024-04-24T15:18:49.877Z,74.37
2024-04-24T15:21:16.408Z,75.12
2024-04-24T15:23:46.348Z,76.18
2024-04-24T15:26:14.473Z,75.17
2024-04-24T15:28:40.983Z,75.40
2024-04-24T15:31:08.589Z,74.63
2024-04-24T15:33:35.362Z,74.78
2024-04-24T15:36:01.955Z,74.56
2024-04-24T15:38:29.035Z,74.86
2024-04-24T15:40:55.883Z,74.35
2024-04-24T15:43:22.414Z,74.34
2024-04-24T15:45:49.938Z,73.95
2024-04-24T15:48:16.782Z,74.14
2024-04-24T15:50:43.524Z,73.59
2024-04-24T15:53:10.175Z,73.84
2024-04-24T15:55:36.777Z,73.69
2024-04-24T15:58:03.400Z,73.98
2024-04-24T16:00:30.183Z,74.48
2024-04-24T16:02:56.761Z,74.93
2024-04-24T16:05:23.526Z,74.48
2024-04-24T16:07:50.079Z,75.30
2024-04-24T16:10:16.583Z,74.84
2024-04-24T16:12:43.311Z,75.73
2024-04-24T16:15:09.910Z,76.06
2024-04-24T16:17:36.642Z,76.30
2024-04-24T16:20:03.659Z,76.50
2024-04-24T16:22:30.210Z,76.64
2024-04-24T16:24:56.744Z,76.66
2024-04-24T16:27:23.263Z,76.61
2024-04-24T16:29:54.341Z,76.35
2024-04-24T16:32:21.092Z,76.59
2024-04-24T16:34:47.645Z,76.83
2024-04-24T16:37:14.811Z,76.79
2024-04-24T16:39:44.163Z,76.96
2024-04-24T16:42:10.658Z,77.27
2024-04-24T16:44:37.258Z,74.53
2024-04-24T16:47:04.012Z,71.50
2024-04-24T16:49:31.358Z,72.37
2024-04-24T16:51:57.866Z,73.19
2024-04-24T16:54:24.440Z,72.62
2024-04-24T16:56:51.128Z,73.27
2024-04-24T16:59:17.667Z,73.52
2024-04-24T17:01:44.215Z,73.93
2024-04-24T17:04:12.834Z,73.75
2024-04-24T17:06:39.507Z,73.92
2024-04-24T17:09:06.089Z,74.30
2024-04-24T17:11:33.003Z,74.84
2024-04-24T17:14:01.507Z,75.27
2024-04-24T17:16:28.042Z,75.59
2024-04-24T17:18:54.839Z,76.15
2024-04-24T17:21:21.469Z,75.80
2024-04-24T17:23:48.012Z,75.94
2024-04-24T17:26:21.148Z,75.59
2024-04-24T17:28:54.264Z,75.32
2024-04-24T17:31:20.728Z,75.83
2024-04-24T17:33:47.684Z,75.76
2024-04-24T17:36:14.891Z,75.69
2024-04-24T17:38:42.005Z,76.57
2024-04-24T17:41:09.850Z,76.98
2024-04-24T17:43:37.400Z,76.50
2024-04-24T17:46:07.435Z,76.96
2024-04-24T17:48:34.618Z,76.74
2024-04-24T17:51:01.306Z,76.74
2024-04-24T17:53:27.931Z,77.20
2024-04-24T17:55:54.605Z,77.50
2024-04-24T17:58:21.507Z,77.32
2024-04-24T18:00:48.305Z,77.49
2024-04-24T18:03:14.881Z,77.78
2024-04-24T18:05:41.474Z,77.29
2024-04-24T18:08:08.162Z,77.44
2024-04-24T18:10:34.824Z,78.00
2024-04-24T18:13:03.520Z,78.04
2024-04-24T18:15:30.080Z,77.76
2024-04-24T18:17:56.911Z,77.79
2024-04-24T18:20:23.535Z,77.58
2024-04-24T18:22:51.311Z,77.49
2024-04-24T18:25:17.853Z,77.46
2024-04-24T18:27:45.152Z,77.35
2024-04-24T18:30:11.703Z,77.76
2024-04-24T18:32:38.529Z,77.28
2024-04-24T18:35:05.720Z,77.26
2024-04-24T18:37:32.357Z,77.24
2024-04-24T18:40:00.213Z,76.88
2024-04-24T18:42:26.842Z,76.99
2024-04-24T18:44:53.418Z,77.09
2024-04-24T18:47:21.909Z,76.89
2024-04-24T18:49:48.487Z,77.22
2024-04-24T18:52:15.120Z,76.86
2024-04-24T18:54:41.791Z,77.17
2024-04-24T18:57:08.354Z,77.17
2024-04-24T18:59:34.978Z,77.38
2024-04-24T19:02:01.621Z,76.69
2024-04-24T19:04:28.200Z,76.58
2024-04-24T19:06:54.838Z,77.05
2024-04-24T19:09:21.356Z,77.10
2024-04-24T19:11:48.448Z,77.44
2024-04-24T19:14:14.983Z,77.53
2024-04-24T19:16:41.558Z,77.39
2024-04-24T19:19:08.149Z,77.21
2024-04-24T19:21:34.806Z,77.22
2024-04-24T19:24:01.357Z,77.79
2024-04-24T19:26:29.383Z,77.84
2024-04-24T19:28:56.062Z,78.36
2024-04-24T19:31:31.127Z,78.34
2024-04-24T19:33:59.690Z,78.52
2024-04-24T19:36:27.184Z,78.06
2024-04-24T19:38:53.737Z,78.11
2024-04-24T19:41:20.291Z,77.89
2024-04-24T19:43:46.832Z,78.10
2024-04-24T19:46:13.464Z,78.31
2024-04-24T19:48:40.005Z,78.21
2024-04-24T19:51:08.034Z,78.74
2024-04-24T19:53:35.706Z,78.67
2024-04-24T19:56:06.411Z,78.53
2024-04-24T19:58:34.086Z,78.77
2024-04-24T20:01:09.011Z,78.95
2024-04-24T20:03:36.395Z,79.09
2024-04-24T20:06:06.043Z,79.37
2024-04-24T20:08:33.880Z,79.38
2024-04-24T20:11:04.664Z,79.71
2024-04-24T20:13:31.415Z,79.27
2024-04-24T20:16:08.837Z,79.43
2024-04-24T20:18:38.456Z,80.34
2024-04-24T20:21:13.467Z,80.26
2024-04-24T20:23:40.441Z,80.54
2024-04-24T20:26:24.884Z,80.42
2024-04-24T20:28:52.708Z,80.86
2024-04-24T20:31:29.213Z,80.60
2024-04-24T20:33:58.778Z,80.80
2024-04-24T20:36:26.901Z,80.68
2024-04-24T20:38:54.843Z,80.78
2024-04-24T20:41:21.760Z,80.29
2024-04-24T20:43:49.413Z,80.53
2024-04-24T20:46:16.932Z,80.90
2024-04-24T20:48:43.551Z,80.84
2024-04-24T20:51:13.546Z,81.02
2024-04-24T20:53:40.210Z,81.19
2024-04-24T20:56:07.806Z,81.36
2024-04-24T20:58:34.416Z,81.50
2024-04-24T21:01:07.402Z,81.38
2024-04-24T21:03:34.367Z,81.11
2024-04-24T21:06:12.316Z,81.16
2024-04-24T21:08:39.604Z,80.99
2024-04-24T21:11:06.403Z,81.16
2024-04-24T21:13:33.041Z,80.80
2024-04-24T21:15:59.880Z,81.32
2024-04-24T21:18:26.633Z,80.83
2024-04-24T21:20:56.410Z,80.97
2024-04-24T21:23:22.968Z,81.48
2024-04-24T21:25:49.632Z,81.77
2024-04-24T21:28:16.263Z,81.72
2024-04-24T21:30:42.797Z,81.79
2024-04-24T21:33:09.423Z,81.38
2024-04-24T21:35:38.467Z,81.82
2024-04-24T21:38:05.145Z,82.12
2024-04-24T21:40:32.463Z,82.02
2024-04-24T21:42:58.961Z,82.07
2024-04-24T21:45:27.342Z,82.19
2024-04-24T21:47:55.030Z,82.10
2024-04-24T21:50:21.826Z,82.11
2024-04-24T21:52:48.479Z,82.44
2024-04-24T21:55:15.062Z,82.78
2024-04-24T21:57:41.675Z,82.70
2024-04-24T22:00:08.774Z,82.50
2024-04-24T22:02:35.375Z,82.89
2024-04-24T22:05:02.229Z,82.67
2024-04-24T22:07:28.807Z,82.74
2024-04-24T22:09:55.295Z,83.08
2024-04-24T22:12:21.933Z,83.08
2024-04-24T22:14:48.463Z,83.15
2024-04-24T22:17:19.785Z,83.17
2024-04-24T22:19:51.987Z,83.31
2024-04-24T22:22:18.688Z,83.41
2024-04-24T22:24:45.228Z,83.18
2024-04-24T22:27:11.769Z,83.61
2024-04-24T22:29:38.294Z,84.40
2024-04-24T22:32:05.276Z,84.59
2024-04-24T22:34:31.817Z,84.51
2024-04-24T22:36:58.349Z,84.15
2024-04-24T22:39:24.860Z,84.14
2024-04-24T22:41:51.495Z,83.97
2024-04-24T22:44:18.081Z,83.94
2024-04-24T22:46:44.642Z,83.82
2024-04-24T22:49:11.155Z,83.62
2024-04-24T22:51:38.625Z,83.75
2024-04-24T22:54:05.423Z,83.01
2024-04-24T22:56:33.051Z,83.24
2024-04-24T22:58:59.742Z,83.33
2024-04-24T23:01:26.343Z,83.19
2024-04-24T23:03:53.038Z,83.36
2024-04-24T23:06:19.765Z,83.07
2024-04-24T23:08:46.319Z,82.97
2024-04-24T23:11:13.607Z,83.16
2024-04-24T23:13:40.428Z,83.34
2024-04-24T23:16:07.307Z,83.44
2024-04-24T23:18:38.216Z,83.39
2024-04-24T23:21:05.926Z,83.41
2024-04-24T23:23:32.569Z,83.10
2024-04-24T23:25:59.137Z,83.12
2024-04-24T23:28:25.748Z,83.08
2024-04-24T23:30:52.363Z,82.93
2024-04-24T23:33:18.936Z,83.41
2024-04-24T23:35:46.008Z,83.49
2024-04-24T23:38:13.563Z,83.43
2024-04-24T23:40:40.046Z,83.54
2024-04-24T23:43:06.593Z,83.11
2024-04-24T23:45:33.203Z,83.84
2024-04-24T23:47:59.769Z,83.61
2024-04-24T23:50:26.382Z,83.58
2024-04-24T23:52:52.985Z,83.36
2024-04-24T23:55:19.509Z,83.67
2024-04-24T23:57:45.995Z,83.31
